Industrial Montana, Puerto Rico
Current Conditions -  °F | °C
As of 1:50 PM on Thursday 30 Oct 2014 (Local Time) from TJBQ Reporting Station
Scattered Clouds Scattered Clouds  
Wind Chill: 84°   Ceiling: Unl
Heat Index: 92°   Visibility: 10mi
Dew Point: 75°   Wind: 7mph
Humidity: 74%   Direction: 40°NE
Pressure: 29.8"   Gusts: NA
Location:  18.4409°N, 67.1508°W
Report Text: TJBQ 301750Z 04006KT 10SM SCT030 29/24 A2980 RMK RWY08 ATIS Z
Loading
Personal Weather Stations






























Interactive Weather Map
Tropical Storm Tracking
New forecast layout! Learn more

10-Day Weather Forecast

Advertisements
Track Severe Weather on mobile